createdAt,value
2017-11-01T00:00:51.814Z,8.70
2017-11-01T00:03:18.471Z,8.70
2017-11-01T00:05:45.844Z,8.80
2017-11-01T00:08:12.563Z,8.70
2017-11-01T00:10:39.179Z,8.80
2017-11-01T00:13:05.733Z,8.70
2017-11-01T00:15:32.744Z,8.70
2017-11-01T00:17:59.338Z,8.70
2017-11-01T00:20:26.057Z,8.70
2017-11-01T00:22:52.559Z,8.70
2017-11-01T00:25:19.232Z,8.70
2017-11-01T00:27:46.098Z,8.70
2017-11-01T00:30:12.815Z,8.80
2017-11-01T00:32:39.997Z,8.80
2017-11-01T00:35:06.714Z,8.80
2017-11-01T00:37:33.529Z,8.80
2017-11-01T00:40:00.231Z,8.80
2017-11-01T00:42:26.883Z,8.80
2017-11-01T00:44:53.589Z,8.80
2017-11-01T00:47:20.825Z,8.80
2017-11-01T00:49:47.998Z,8.80
2017-11-01T00:52:14.682Z,8.80
2017-11-01T00:54:41.630Z,8.80
2017-11-01T00:57:08.359Z,8.80
2017-11-01T00:59:35.867Z,8.80
2017-11-01T01:02:03.433Z,8.80
2017-11-01T01:04:30.156Z,8.80
2017-11-01T01:06:56.712Z,8.70
2017-11-01T01:09:24.414Z,8.70
2017-11-01T01:11:51.158Z,8.70
2017-11-01T01:14:18.095Z,8.80
2017-11-01T01:16:46.148Z,8.70
2017-11-01T01:19:12.808Z,8.70
2017-11-01T01:21:39.394Z,8.70
2017-11-01T01:24:07.078Z,8.70
2017-11-01T01:26:34.693Z,8.70
2017-11-01T01:29:01.445Z,8.70
2017-11-01T01:31:28.225Z,8.80
2017-11-01T01:33:54.968Z,8.70
2017-11-01T01:36:22.526Z,8.80
2017-11-01T01:38:49.291Z,8.70
2017-11-01T01:41:15.976Z,8.80
2017-11-01T01:43:42.999Z,8.80
2017-11-01T01:46:10.540Z,8.80
2017-11-01T01:48:37.430Z,8.80
2017-11-01T01:51:04.055Z,8.80
2017-11-01T01:53:30.641Z,8.80
2017-11-01T01:55:59.237Z,8.80
2017-11-01T01:58:26.184Z,8.80
2017-11-01T02:00:54.427Z,8.80
2017-11-01T02:03:21.952Z,8.80
2017-11-01T02:05:52.056Z,8.80
2017-11-01T02:08:20.617Z,8.80
2017-11-01T02:10:49.032Z,8.80
2017-11-01T02:13:19.143Z,8.80
2017-11-01T02:15:51.272Z,8.80
2017-11-01T02:18:19.104Z,8.80
2017-11-01T02:20:46.117Z,8.90
2017-11-01T02:23:13.230Z,8.90
2017-11-01T02:25:42.907Z,8.80
2017-11-01T02:28:19.942Z,8.90
2017-11-01T02:30:52.881Z,8.80
2017-11-01T02:38:39.135Z,8.80
2017-11-01T02:41:06.580Z,8.90
2017-11-01T02:43:38.835Z,8.90
2017-11-01T02:46:06.958Z,8.90
2017-11-01T02:48:33.682Z,8.80
2017-11-01T02:51:00.523Z,8.90
2017-11-01T02:53:27.073Z,8.80
2017-11-01T02:55:53.879Z,8.90
2017-11-01T02:58:20.726Z,8.90
2017-11-01T03:00:47.403Z,8.90
2017-11-01T03:03:14.136Z,8.90
2017-11-01T03:05:40.956Z,8.90
2017-11-01T03:08:07.531Z,8.90
2017-11-01T03:10:34.078Z,8.90
2017-11-01T03:13:00.951Z,8.90
2017-11-01T03:15:30.359Z,8.90
2017-11-01T03:17:59.084Z,8.90
2017-11-01T03:20:28.249Z,8.90
2017-11-01T03:22:55.337Z,8.90
2017-11-01T03:25:22.792Z,8.90
2017-11-01T03:27:49.444Z,8.90
2017-11-01T03:30:16.933Z,9.00
2017-11-01T03:32:43.491Z,9.00
2017-11-01T03:35:10.310Z,9.00
2017-11-01T03:37:36.839Z,9.00
2017-11-01T03:40:05.088Z,9.00
2017-11-01T03:42:32.583Z,9.00
2017-11-01T03:44:59.256Z,9.00
2017-11-01T03:47:26.869Z,9.00
2017-11-01T03:49:54.292Z,9.00
2017-11-01T03:52:20.991Z,9.00
2017-11-01T03:54:47.727Z,9.00
2017-11-01T03:57:15.404Z,9.10
2017-11-01T03:59:42.129Z,9.10
2017-11-01T04:02:09.053Z,9.10
2017-11-01T04:04:36.145Z,9.10
2017-11-01T04:07:03.899Z,9.10
2017-11-01T04:09:31.344Z,9.10
2017-11-01T04:11:58.253Z,9.10
2017-11-01T04:14:24.942Z,9.10
2017-11-01T04:16:52.676Z,9.10
2017-11-01T04:19:23.276Z,9.10
2017-11-01T04:21:50.038Z,9.10
2017-11-01T04:24:16.731Z,9.20
2017-11-01T04:26:43.393Z,9.20
2017-11-01T04:29:10.260Z,9.20
2017-11-01T04:31:37.044Z,9.20
2017-11-01T04:34:03.984Z,9.10
2017-11-01T04:36:30.802Z,9.10
2017-11-01T04:38:57.452Z,9.20
2017-11-01T04:41:26.302Z,9.20
2017-11-01T04:43:54.453Z,9.20
2017-11-01T04:46:22.168Z,9.20
2017-11-01T04:48:50.540Z,9.20
2017-11-01T04:51:17.273Z,9.20
2017-11-01T04:53:43.846Z,9.20
2017-11-01T04:56:11.272Z,9.30
2017-11-01T04:58:38.776Z,9.30
2017-11-01T05:01:05.440Z,9.30
2017-11-01T05:03:33.000Z,9.30
2017-11-01T05:05:59.712Z,9.30
2017-11-01T05:08:32.961Z,9.40
2017-11-01T05:11:05.481Z,9.30
2017-11-01T05:13:34.931Z,9.40
2017-11-01T05:16:02.680Z,9.40
2017-11-01T05:18:29.347Z,9.40
2017-11-01T05:20:56.886Z,9.40
2017-11-01T05:23:23.957Z,9.40
2017-11-01T05:25:54.624Z,9.40
2017-11-01T05:28:21.223Z,9.40
2017-11-01T05:30:48.611Z,9.50
2017-11-01T05:33:15.899Z,9.50
2017-11-01T05:35:42.608Z,9.40
2017-11-01T05:38:09.408Z,9.50
2017-11-01T05:40:36.161Z,9.50
2017-11-01T05:43:02.859Z,9.50
2017-11-01T05:45:29.621Z,9.50
2017-11-01T05:47:56.573Z,9.60
2017-11-01T05:50:23.210Z,9.60
2017-11-01T05:52:49.791Z,9.60
2017-11-01T05:55:16.626Z,9.70
2017-11-01T05:57:43.365Z,9.70
2017-11-01T06:00:10.036Z,9.70
2017-11-01T06:02:36.859Z,9.80
2017-11-01T06:05:03.633Z,9.80
2017-11-01T06:07:30.460Z,9.80
2017-11-01T06:09:57.031Z,9.80
2017-11-01T06:12:23.799Z,9.80
2017-11-01T06:14:50.606Z,9.80
2017-11-01T06:17:17.325Z,9.80
2017-11-01T06:19:43.898Z,9.80
2017-11-01T06:22:10.671Z,9.80
2017-11-01T06:24:37.442Z,9.90
2017-11-01T06:27:04.187Z,9.90
2017-11-01T06:29:30.976Z,10.00
2017-11-01T06:31:57.689Z,10.00
2017-11-01T06:34:24.492Z,10.00
2017-11-01T06:36:51.680Z,10.10
2017-11-01T06:39:18.625Z,10.00
2017-11-01T06:41:45.307Z,10.10
2017-11-01T06:44:12.102Z,10.10
2017-11-01T06:46:38.849Z,10.10
2017-11-01T06:49:05.496Z,10.20
2017-11-01T06:51:32.296Z,10.20
2017-11-01T06:53:58.950Z,10.20
2017-11-01T06:56:25.528Z,10.30
2017-11-01T06:58:52.330Z,10.30
2017-11-01T07:01:19.077Z,10.30
2017-11-01T07:03:45.682Z,10.30
2017-11-01T07:06:12.459Z,10.30
2017-11-01T07:08:39.115Z,10.40
2017-11-01T07:11:05.825Z,10.40
2017-11-01T07:13:33.179Z,10.50
2017-11-01T07:16:06.698Z,10.40
2017-11-01T07:18:34.129Z,10.50
2017-11-01T07:21:01.041Z,10.50
2017-11-01T07:23:27.788Z,10.50
2017-11-01T07:25:54.584Z,10.60
2017-11-01T07:28:21.355Z,10.60
2017-11-01T07:30:48.061Z,10.60
2017-11-01T07:33:14.806Z,10.60
2017-11-01T07:35:41.524Z,10.60
2017-11-01T07:38:08.328Z,10.70
2017-11-01T07:40:35.072Z,10.70
2017-11-01T07:43:01.742Z,10.80
2017-11-01T07:45:28.501Z,10.80
2017-11-01T07:47:55.068Z,10.80
2017-11-01T07:50:21.727Z,10.80
2017-11-01T07:52:48.497Z,10.80
2017-11-01T07:55:15.106Z,10.90
2017-11-01T07:57:41.833Z,10.90
2017-11-01T08:00:08.717Z,10.90
2017-11-01T08:02:35.564Z,11.00
2017-11-01T08:05:02.265Z,11.00
2017-11-01T08:07:28.908Z,11.10
2017-11-01T08:09:56.152Z,11.10
2017-11-01T08:12:22.722Z,11.10
2017-11-01T08:14:49.438Z,11.20
2017-11-01T08:17:16.220Z,11.30
2017-11-01T08:19:42.897Z,11.30
2017-11-01T08:22:09.617Z,11.20
2017-11-01T08:24:36.175Z,11.20
2017-11-01T08:27:03.065Z,11.30
2017-11-01T08:29:29.847Z,11.30
2017-11-01T08:31:56.629Z,11.30
2017-11-01T08:34:23.399Z,11.30
2017-11-01T08:36:51.015Z,11.50
2017-11-01T08:39:17.851Z,11.40
2017-11-01T08:41:44.540Z,11.60
2017-11-01T08:44:11.420Z,11.60
2017-11-01T08:46:37.979Z,11.70
2017-11-01T08:49:05.417Z,11.70
2017-11-01T08:51:32.166Z,11.80
2017-11-01T08:53:58.727Z,11.80
2017-11-01T08:56:25.460Z,11.90
2017-11-01T08:58:52.239Z,11.90
2017-11-01T09:01:19.006Z,11.80
2017-11-01T09:03:46.424Z,11.80
2017-11-01T09:06:13.435Z,11.70
2017-11-01T09:08:39.988Z,11.80
2017-11-01T09:11:06.559Z,11.80
2017-11-01T09:13:33.255Z,11.90
2017-11-01T09:16:01.466Z,12.10
2017-11-01T09:18:28.082Z,12.10
2017-11-01T09:20:54.823Z,12.20
2017-11-01T09:23:21.376Z,12.20
2017-11-01T09:25:48.046Z,12.20
2017-11-01T09:28:14.800Z,12.30
2017-11-01T09:30:41.521Z,12.40
2017-11-01T09:33:08.306Z,12.30
2017-11-01T09:35:35.794Z,12.40
2017-11-01T09:38:03.234Z,12.50
2017-11-01T09:40:30.858Z,12.50
2017-11-01T09:42:57.417Z,12.50
2017-11-01T09:45:24.079Z,12.50
2017-11-01T09:47:50.767Z,12.60
2017-11-01T09:52:50.499Z,12.50
2017-11-01T09:55:17.853Z,12.50
2017-11-01T09:57:44.574Z,12.50
2017-11-01T10:00:11.523Z,12.50
2017-11-01T10:02:38.149Z,12.50
2017-11-01T10:05:04.775Z,12.50
2017-11-01T10:07:31.320Z,12.60
2017-11-01T10:09:57.983Z,12.60
2017-11-01T10:12:24.658Z,12.60
2017-11-01T10:14:51.883Z,12.70
2017-11-01T10:17:18.637Z,12.70
2017-11-01T10:19:46.157Z,12.70
2017-11-01T10:22:13.472Z,12.70
2017-11-01T10:24:40.024Z,12.60
2017-11-01T10:27:07.942Z,12.60
2017-11-01T10:29:37.693Z,12.60
2017-11-01T10:32:06.625Z,12.70
2017-11-01T10:34:33.479Z,12.70
2017-11-01T10:37:00.312Z,12.70
2017-11-01T10:39:27.185Z,12.80
2017-11-01T10:41:53.994Z,12.90
2017-11-01T10:44:20.837Z,12.90
2017-11-01T10:46:47.618Z,12.90
2017-11-01T10:49:14.536Z,13.00
2017-11-01T10:51:41.270Z,13.10
2017-11-01T10:54:15.892Z,13.10
2017-11-01T10:56:42.716Z,13.30
2017-11-01T10:59:09.570Z,13.30
2017-11-01T11:01:36.467Z,13.30
2017-11-01T11:04:03.448Z,13.40
2017-11-01T11:06:30.843Z,13.40
2017-11-01T11:08:57.980Z,13.40
2017-11-01T11:11:24.615Z,13.40
2017-11-01T11:13:51.757Z,13.40
2017-11-01T11:16:18.710Z,13.40
2017-11-01T11:18:45.266Z,13.50
2017-11-01T11:21:12.086Z,13.50
2017-11-01T11:23:41.215Z,13.60
2017-11-01T11:26:08.140Z,13.50
2017-11-01T11:28:34.739Z,13.70
2017-11-01T11:31:01.554Z,13.70
2017-11-01T11:33:28.503Z,13.80
2017-11-01T11:35:56.286Z,14.30
2017-11-01T11:38:22.965Z,14.20
2017-11-01T11:40:50.560Z,14.10
2017-11-01T11:43:18.057Z,13.90
2017-11-01T11:45:44.894Z,13.90
2017-11-01T11:48:13.307Z,13.70
2017-11-01T11:50:40.226Z,13.60
2017-11-01T11:53:07.563Z,13.60
2017-11-01T11:55:34.649Z,13.50
2017-11-01T11:58:02.315Z,13.50
2017-11-01T12:00:29.845Z,13.50
2017-11-01T12:02:56.435Z,13.40
2017-11-01T12:05:23.010Z,13.40
2017-11-01T12:07:50.552Z,13.30
2017-11-01T12:10:17.085Z,13.30
2017-11-01T12:12:43.799Z,13.30
2017-11-01T12:15:10.462Z,13.40
2017-11-01T12:17:37.583Z,13.30
2017-11-01T12:20:05.016Z,13.30
2017-11-01T12:22:31.831Z,13.20
2017-11-01T12:24:58.642Z,13.30
2017-11-01T12:27:25.746Z,13.20
2017-11-01T12:29:53.573Z,13.20
2017-11-01T12:32:21.585Z,13.20
2017-11-01T12:34:49.911Z,13.20
2017-11-01T12:37:18.302Z,13.00
2017-11-01T12:39:44.875Z,13.00
2017-11-01T12:42:13.274Z,13.00
2017-11-01T12:44:41.467Z,13.00
2017-11-01T12:47:10.608Z,12.90
2017-11-01T12:49:38.298Z,12.90
2017-11-01T12:52:06.089Z,12.90
2017-11-01T12:54:34.540Z,12.90
2017-11-01T12:57:03.177Z,12.90
2017-11-01T12:59:30.646Z,12.90
2017-11-01T13:01:59.728Z,12.80
2017-11-01T13:04:27.833Z,12.80
2017-11-01T13:06:55.255Z,12.80
2017-11-01T13:09:23.783Z,12.80
2017-11-01T13:11:51.773Z,12.80
2017-11-01T13:14:19.214Z,12.80
2017-11-01T13:16:46.752Z,12.80
2017-11-01T13:19:13.648Z,12.80
2017-11-01T13:21:42.200Z,12.80
2017-11-01T13:24:10.582Z,12.80
2017-11-01T13:26:37.632Z,12.80
2017-11-01T13:29:09.159Z,12.80
2017-11-01T13:31:36.614Z,12.80
2017-11-01T13:34:03.512Z,12.80
2017-11-01T13:36:30.233Z,12.90
2017-11-01T13:38:59.117Z,12.90
2017-11-01T13:41:25.868Z,12.90
2017-11-01T13:43:53.226Z,12.90
2017-11-01T13:46:19.947Z,12.90
2017-11-01T13:48:47.008Z,12.90
2017-11-01T13:51:16.337Z,13.00
2017-11-01T13:53:43.802Z,13.00
2017-11-01T13:56:11.592Z,13.00
2017-11-01T13:58:38.358Z,13.00
2017-11-01T14:01:05.231Z,13.00
2017-11-01T14:03:33.061Z,13.10
2017-11-01T14:06:01.068Z,13.10
2017-11-01T14:08:29.208Z,13.00
2017-11-01T14:10:56.705Z,13.00
2017-11-01T14:13:23.483Z,13.00
2017-11-01T14:15:50.057Z,13.00
2017-11-01T14:18:16.809Z,13.00
2017-11-01T14:20:44.651Z,13.00
2017-11-01T14:23:13.007Z,13.00
2017-11-01T14:25:39.806Z,13.00
2017-11-01T14:28:08.963Z,13.00
2017-11-01T14:30:36.639Z,12.90
2017-11-01T14:33:04.267Z,13.00
2017-11-01T14:35:31.271Z,12.90
2017-11-01T14:37:59.091Z,12.90
2017-11-01T14:40:30.993Z,12.90
2017-11-01T14:42:58.920Z,12.90
2017-11-01T14:45:29.991Z,13.00
2017-11-01T14:47:58.347Z,12.90
2017-11-01T14:50:25.006Z,12.90
2017-11-01T14:52:51.575Z,12.90
2017-11-01T14:55:18.359Z,12.90
2017-11-01T14:57:45.393Z,12.90
2017-11-01T15:00:13.121Z,12.90
2017-11-01T15:02:40.513Z,12.90
2017-11-01T15:05:07.438Z,12.90
2017-11-01T15:07:34.142Z,12.90
2017-11-01T15:10:00.947Z,12.90
2017-11-01T15:12:27.697Z,13.00
2017-11-01T15:14:55.297Z,12.90
2017-11-01T15:17:22.088Z,12.90
2017-11-01T15:19:48.752Z,12.90
2017-11-01T15:22:15.627Z,12.90
2017-11-01T15:24:42.302Z,12.90
2017-11-01T15:27:10.440Z,12.80
2017-11-01T15:29:37.148Z,12.80
2017-11-01T15:32:03.899Z,12.80
2017-11-01T15:34:30.707Z,12.90
2017-11-01T15:36:57.748Z,12.90
2017-11-01T15:39:25.108Z,12.80
2017-11-01T15:41:52.450Z,12.80
2017-11-01T15:44:19.156Z,12.80
2017-11-01T15:46:45.750Z,12.80
2017-11-01T15:49:12.692Z,12.80
2017-11-01T15:51:39.344Z,12.80
2017-11-01T15:54:05.946Z,12.80
2017-11-01T15:56:33.970Z,12.80
2017-11-01T15:59:01.515Z,12.70
2017-11-01T16:01:29.223Z,12.70
2017-11-01T16:03:56.159Z,12.70
2017-11-01T16:06:22.877Z,12.80
2017-11-01T16:08:49.424Z,12.80
2017-11-01T16:11:16.825Z,12.70
2017-11-01T16:13:43.431Z,12.80
2017-11-01T16:16:11.771Z,12.80
2017-11-01T16:18:38.622Z,12.80
2017-11-01T16:21:06.031Z,12.80
2017-11-01T16:23:33.683Z,12.80
2017-11-01T16:26:00.314Z,12.70
2017-11-01T16:28:27.489Z,12.70
2017-11-01T16:30:54.572Z,12.70
2017-11-01T16:33:21.308Z,12.70
2017-11-01T16:35:48.782Z,12.70
2017-11-01T16:38:15.521Z,12.60
2017-11-01T16:40:43.202Z,12.60
2017-11-01T16:43:11.730Z,12.50
2017-11-01T16:45:38.384Z,12.40
2017-11-01T16:48:04.970Z,12.40
2017-11-01T16:50:32.353Z,12.30
2017-11-01T16:52:59.016Z,12.30
2017-11-01T16:55:25.869Z,12.30
2017-11-01T16:57:52.630Z,12.20
2017-11-01T17:00:20.035Z,12.30
2017-11-01T17:02:46.831Z,12.30
2017-11-01T17:05:14.437Z,12.30
2017-11-01T17:07:41.791Z,12.30
2017-11-01T17:10:08.532Z,12.30
2017-11-01T17:12:35.808Z,12.30
2017-11-01T17:15:03.112Z,12.30
2017-11-01T17:17:29.795Z,12.30
2017-11-01T17:19:56.597Z,12.40
2017-11-01T17:22:23.995Z,12.40
2017-11-01T17:24:50.956Z,12.40
2017-11-01T17:27:17.685Z,12.50
2017-11-01T17:29:44.640Z,12.50
2017-11-01T17:32:12.905Z,12.50
2017-11-01T17:34:41.086Z,12.60
2017-11-01T17:37:07.836Z,12.50
2017-11-01T17:39:34.554Z,12.60
2017-11-01T17:42:01.188Z,12.60
2017-11-01T17:44:27.813Z,12.60
2017-11-01T17:46:55.430Z,12.60
2017-11-01T17:49:22.339Z,12.50
2017-11-01T17:51:49.657Z,12.60
2017-11-01T17:54:19.440Z,12.50
2017-11-01T17:56:46.414Z,12.60
2017-11-01T17:59:13.999Z,12.60
2017-11-01T18:01:42.389Z,12.60
2017-11-01T18:04:09.480Z,12.60
2017-11-01T18:06:39.371Z,12.60
2017-11-01T18:09:08.244Z,12.60
2017-11-01T18:11:34.989Z,12.60
2017-11-01T18:14:03.363Z,12.60
2017-11-01T18:16:31.135Z,12.60
2017-11-01T18:18:58.688Z,12.60
2017-11-01T18:21:25.425Z,12.60
2017-11-01T18:23:52.992Z,12.60
2017-11-01T18:26:19.736Z,12.50
2017-11-01T18:28:46.503Z,12.60
2017-11-01T18:31:14.030Z,12.40
2017-11-01T18:33:45.806Z,12.40
2017-11-01T18:36:13.460Z,12.40
2017-11-01T18:38:39.984Z,12.30
2017-11-01T18:41:06.622Z,12.30
2017-11-01T18:43:34.911Z,12.30
2017-11-01T18:46:02.480Z,12.30
2017-11-01T18:48:29.115Z,12.30
2017-11-01T18:50:55.754Z,12.20
2017-11-01T18:53:22.506Z,12.20
2017-11-01T18:55:49.132Z,12.20
2017-11-01T18:58:15.877Z,12.10
2017-11-01T19:00:43.694Z,12.10
2017-11-01T19:03:10.273Z,12.10
2017-11-01T19:05:36.792Z,12.10
2017-11-01T19:08:03.572Z,12.10
2017-11-01T19:10:31.004Z,12.10
2017-11-01T19:12:57.999Z,12.00
2017-11-01T19:15:24.573Z,12.10
2017-11-01T19:17:51.228Z,12.10
2017-11-01T19:20:17.951Z,12.10
2017-11-01T19:22:45.406Z,12.10
2017-11-01T19:25:12.173Z,12.10
2017-11-01T19:27:39.043Z,12.10
2017-11-01T19:30:05.883Z,12.10
2017-11-01T19:32:32.614Z,12.10
2017-11-01T19:34:59.312Z,12.20
2017-11-01T19:37:26.953Z,12.20
2017-11-01T19:39:53.703Z,12.20
2017-11-01T19:42:21.914Z,12.20
2017-11-01T19:44:49.068Z,12.20
2017-11-01T19:47:15.668Z,12.20
2017-11-01T19:49:43.117Z,12.20
2017-11-01T19:52:09.707Z,12.20
2017-11-01T19:54:36.455Z,12.20
2017-11-01T19:57:03.571Z,12.20
2017-11-01T19:59:30.152Z,12.20
2017-11-01T20:01:56.918Z,12.20
2017-11-01T20:04:24.195Z,12.10
2017-11-01T20:06:51.161Z,12.10
2017-11-01T20:09:18.745Z,12.20
2017-11-01T20:11:46.754Z,12.20
2017-11-01T20:14:13.623Z,12.20
2017-11-01T20:16:40.473Z,12.10
2017-11-01T20:19:07.867Z,12.10
2017-11-01T20:21:34.844Z,12.00
2017-11-01T20:24:01.654Z,12.10
2017-11-01T20:26:28.714Z,12.10
2017-11-01T20:28:55.472Z,12.10
2017-11-01T20:31:22.129Z,12.10
2017-11-01T20:33:50.022Z,12.10
2017-11-01T20:36:17.490Z,12.00
2017-11-01T20:38:44.221Z,12.00
2017-11-01T20:41:11.706Z,12.00
2017-11-01T20:43:39.083Z,12.00
2017-11-01T20:46:05.803Z,11.90
2017-11-01T20:48:32.434Z,11.90
2017-11-01T20:50:59.481Z,11.90
2017-11-01T20:53:26.194Z,11.90
2017-11-01T20:55:52.747Z,11.90
2017-11-01T20:58:20.159Z,11.90
2017-11-01T21:00:46.919Z,11.80
2017-11-01T21:03:13.731Z,11.70
2017-11-01T21:05:40.434Z,11.60
2017-11-01T21:08:10.623Z,11.40
2017-11-01T21:10:37.530Z,11.40
2017-11-01T21:13:04.947Z,11.30
2017-11-01T21:15:31.555Z,11.20
2017-11-01T21:17:59.084Z,11.20
2017-11-01T21:20:25.829Z,11.10
2017-11-01T21:22:52.723Z,11.10
2017-11-01T21:25:20.375Z,11.00
2017-11-01T21:27:47.796Z,11.00
2017-11-01T21:30:15.621Z,11.00
2017-11-01T21:32:42.958Z,11.00
2017-11-01T21:35:09.752Z,11.00
2017-11-01T21:37:36.320Z,11.00
2017-11-01T21:40:03.545Z,11.00
2017-11-01T21:42:30.328Z,11.10
2017-11-01T21:44:57.364Z,11.10
2017-11-01T21:47:24.815Z,11.10
2017-11-01T21:49:52.300Z,11.10
2017-11-01T21:52:19.092Z,11.10
2017-11-01T21:54:46.028Z,11.10
2017-11-01T21:57:13.204Z,11.10
2017-11-01T21:59:39.867Z,11.10
2017-11-01T22:02:06.626Z,11.10
2017-11-01T22:04:33.377Z,11.10
2017-11-01T22:07:00.216Z,11.10
2017-11-01T22:09:27.665Z,11.00
2017-11-01T22:11:59.271Z,11.00
2017-11-01T22:14:25.899Z,10.90
2017-11-01T22:16:54.693Z,10.80
2017-11-01T22:19:21.558Z,10.80
2017-11-01T22:21:48.089Z,10.70
2017-11-01T22:24:17.721Z,10.70
2017-11-01T22:26:44.526Z,10.70
2017-11-01T22:29:11.449Z,10.70
2017-11-01T22:31:38.133Z,10.60
2017-11-01T22:34:05.004Z,10.50
2017-11-01T22:36:31.814Z,10.40
2017-11-01T22:38:58.552Z,10.20
2017-11-01T22:41:25.346Z,10.00
2017-11-01T22:43:51.982Z,9.90
2017-11-01T22:46:19.627Z,9.70
2017-11-01T22:48:46.441Z,9.70
2017-11-01T22:51:13.044Z,9.60
2017-11-01T22:53:39.587Z,9.60
2017-11-01T22:56:06.251Z,9.50
2017-11-01T22:58:32.893Z,9.50
2017-11-01T23:00:59.492Z,9.40
2017-11-01T23:03:26.227Z,9.40
2017-11-01T23:05:52.796Z,9.30
2017-11-01T23:08:19.617Z,9.30
2017-11-01T23:10:46.382Z,9.20
2017-11-01T23:13:13.265Z,9.10
2017-11-01T23:15:40.019Z,9.10
2017-11-01T23:18:06.688Z,9.00
2017-11-01T23:20:33.324Z,9.10
2017-11-01T23:22:59.859Z,9.10
2017-11-01T23:25:26.535Z,9.10
2017-11-01T23:27:54.865Z,9.20
2017-11-01T23:30:22.437Z,9.20
2017-11-01T23:32:49.924Z,9.20
2017-11-01T23:35:16.521Z,9.20
2017-11-01T23:37:44.072Z,9.20
2017-11-01T23:40:10.736Z,9.20
2017-11-01T23:42:38.192Z,9.30
2017-11-01T23:45:05.616Z,9.30
2017-11-01T23:47:33.921Z,9.30
2017-11-01T23:50:01.421Z,9.30
2017-11-01T23:52:28.081Z,9.30
2017-11-01T23:54:55.553Z,9.40
2017-11-01T23:57:23.170Z,9.40
2017-11-01T23:59:50.634Z,9.40
